sensor_id;sensor_type;location;lat;lon;timestamp;temperature;humidity
2749;DHT22;1382;52.142;11.618;2022-08-03T00:02:15;26.20;36.20
2749;DHT22;1382;52.142;11.618;2022-08-03T00:04:43;26.20;36.10
2749;DHT22;1382;52.142;11.618;2022-08-03T00:07:10;26.20;36.70
2749;DHT22;1382;52.142;11.618;2022-08-03T00:09:36;26.30;36.10
2749;DHT22;1382;52.142;11.618;2022-08-03T00:12:04;26.40;36.10
2749;DHT22;1382;52.142;11.618;2022-08-03T00:14:31;26.20;36.60
2749;DHT22;1382;52.142;11.618;2022-08-03T00:16:59;26.30;36.70
2749;DHT22;1382;52.142;11.618;2022-08-03T00:19:25;26.30;35.90
2749;DHT22;1382;52.142;11.618;2022-08-03T00:21:52;26.20;35.90
2749;DHT22;1382;52.142;11.618;2022-08-03T00:24:20;26.30;35.80
2749;DHT22;1382;52.142;11.618;2022-08-03T00:26:46;26.30;35.90
2749;DHT22;1382;52.142;11.618;2022-08-03T00:29:13;26.30;35.80
2749;DHT22;1382;52.142;11.618;2022-08-03T00:31:40;26.30;35.60
2749;DHT22;1382;52.142;11.618;2022-08-03T00:34:26;26.20;35.70
2749;DHT22;1382;52.142;11.618;2022-08-03T00:37:13;26.20;35.60
2749;DHT22;1382;52.142;11.618;2022-08-03T00:39:42;26.20;35.70
2749;DHT22;1382;52.142;11.618;2022-08-03T00:42:08;26.20;35.80
2749;DHT22;1382;52.142;11.618;2022-08-03T00:44:38;26.20;35.80
2749;DHT22;1382;52.142;11.618;2022-08-03T00:47:06;26.20;35.50
2749;DHT22;1382;52.142;11.618;2022-08-03T00:49:34;26.20;35.60
2749;DHT22;1382;52.142;11.618;2022-08-03T00:52:02;26.20;35.60
2749;DHT22;1382;52.142;11.618;2022-08-03T00:54:36;26.20;35.60
2749;DHT22;1382;52.142;11.618;2022-08-03T00:57:03;26.20;35.80
2749;DHT22;1382;52.142;11.618;2022-08-03T00:59:30;26.20;36.30
2749;DHT22;1382;52.142;11.618;2022-08-03T01:01:57;26.20;35.90
2749;DHT22;1382;52.142;11.618;2022-08-03T01:04:24;26.20;36.90
2749;DHT22;1382;52.142;11.618;2022-08-03T01:07:01;26.20;37.60
2749;DHT22;1382;52.142;11.618;2022-08-03T01:09:40;26.20;37.40
2749;DHT22;1382;52.142;11.618;2022-08-03T01:12:17;26.20;37.20
2749;DHT22;1382;52.142;11.618;2022-08-03T01:14:52;26.20;37.10
2749;DHT22;1382;52.142;11.618;2022-08-03T01:17:33;26.20;37.10
2749;DHT22;1382;52.142;11.618;2022-08-03T01:20:04;26.20;38.10
2749;DHT22;1382;52.142;11.618;2022-08-03T01:23:00;26.10;37.70
2749;DHT22;1382;52.142;11.618;2022-08-03T01:25:37;26.20;37.40
2749;DHT22;1382;52.142;11.618;2022-08-03T01:28:19;26.10;37.50
2749;DHT22;1382;52.142;11.618;2022-08-03T01:30:52;26.10;37.40
2749;DHT22;1382;52.142;11.618;2022-08-03T01:33:25;26.10;37.40
2749;DHT22;1382;52.142;11.618;2022-08-03T01:35:56;26.00;37.10
2749;DHT22;1382;52.142;11.618;2022-08-03T01:38:27;26.00;38.10
2749;DHT22;1382;52.142;11.618;2022-08-03T01:40:55;26.00;37.00
2749;DHT22;1382;52.142;11.618;2022-08-03T01:43:25;26.10;37.40
2749;DHT22;1382;52.142;11.618;2022-08-03T01:46:14;26.00;37.80
2749;DHT22;1382;52.142;11.618;2022-08-03T01:48:43;25.90;37.60
2749;DHT22;1382;52.142;11.618;2022-08-03T01:51:12;25.90;37.60
2749;DHT22;1382;52.142;11.618;2022-08-03T01:53:41;25.90;37.90
2749;DHT22;1382;52.142;11.618;2022-08-03T01:56:08;25.90;37.90
2749;DHT22;1382;52.142;11.618;2022-08-03T01:58:36;25.80;37.50
2749;DHT22;1382;52.142;11.618;2022-08-03T02:01:04;25.90;37.30
2749;DHT22;1382;52.142;11.618;2022-08-03T02:03:36;25.80;37.50
2749;DHT22;1382;52.142;11.618;2022-08-03T02:06:24;25.80;37.40
2749;DHT22;1382;52.142;11.618;2022-08-03T02:09:12;25.70;37.20
2749;DHT22;1382;52.142;11.618;2022-08-03T02:11:42;25.70;37.30
2749;DHT22;1382;52.142;11.618;2022-08-03T02:14:10;25.70;37.20
2749;DHT22;1382;52.142;11.618;2022-08-03T02:16:37;25.70;37.00
2749;DHT22;1382;52.142;11.618;2022-08-03T02:19:06;25.70;36.80
2749;DHT22;1382;52.142;11.618;2022-08-03T02:21:35;25.70;37.00
2749;DHT22;1382;52.142;11.618;2022-08-03T02:24:22;25.70;36.70
2749;DHT22;1382;52.142;11.618;2022-08-03T02:26:50;25.80;37.20
2749;DHT22;1382;52.142;11.618;2022-08-03T02:29:22;25.60;36.90
2749;DHT22;1382;52.142;11.618;2022-08-03T02:32:08;25.60;36.70
2749;DHT22;1382;52.142;11.618;2022-08-03T02:34:39;25.60;36.90
2749;DHT22;1382;52.142;11.618;2022-08-03T02:37:07;25.60;36.60
2749;DHT22;1382;52.142;11.618;2022-08-03T02:39:36;25.60;36.60
2749;DHT22;1382;52.142;11.618;2022-08-03T02:42:06;25.60;36.90
2749;DHT22;1382;52.142;11.618;2022-08-03T02:44:34;25.60;36.60
2749;DHT22;1382;52.142;11.618;2022-08-03T02:47:07;25.50;36.70
2749;DHT22;1382;52.142;11.618;2022-08-03T02:49:37;25.50;36.90
2749;DHT22;1382;52.142;11.618;2022-08-03T02:52:19;25.50;37.10
2749;DHT22;1382;52.142;11.618;2022-08-03T02:54:48;25.50;36.80
2749;DHT22;1382;52.142;11.618;2022-08-03T02:57:16;25.50;37.30
2749;DHT22;1382;52.142;11.618;2022-08-03T02:59:45;25.40;37.50
2749;DHT22;1382;52.142;11.618;2022-08-03T03:02:14;25.40;37.20
2749;DHT22;1382;52.142;11.618;2022-08-03T03:04:43;25.40;37.10
2749;DHT22;1382;52.142;11.618;2022-08-03T03:07:31;25.40;37.40
2749;DHT22;1382;52.142;11.618;2022-08-03T03:10:18;25.30;37.30
2749;DHT22;1382;52.142;11.618;2022-08-03T03:12:47;25.30;37.80
2749;DHT22;1382;52.142;11.618;2022-08-03T03:15:15;25.30;37.50
2749;DHT22;1382;52.142;11.618;2022-08-03T03:17:43;25.20;37.40
2749;DHT22;1382;52.142;11.618;2022-08-03T03:20:13;25.20;37.70
2749;DHT22;1382;52.142;11.618;2022-08-03T03:22:55;25.20;37.60
2749;DHT22;1382;52.142;11.618;2022-08-03T03:25:25;25.10;37.20
2749;DHT22;1382;52.142;11.618;2022-08-03T03:27:52;25.10;37.30
2749;DHT22;1382;52.142;11.618;2022-08-03T03:30:19;25.10;37.70
2749;DHT22;1382;52.142;11.618;2022-08-03T03:32:45;25.10;37.20
2749;DHT22;1382;52.142;11.618;2022-08-03T03:35:14;25.00;37.10
2749;DHT22;1382;52.142;11.618;2022-08-03T03:37:41;25.00;37.10
2749;DHT22;1382;52.142;11.618;2022-08-03T03:40:09;24.90;37.10
2749;DHT22;1382;52.142;11.618;2022-08-03T03:42:36;24.90;37.40
2749;DHT22;1382;52.142;11.618;2022-08-03T03:45:04;24.90;37.40
2749;DHT22;1382;52.142;11.618;2022-08-03T03:47:32;24.80;37.20
2749;DHT22;1382;52.142;11.618;2022-08-03T03:50:00;24.80;37.70
2749;DHT22;1382;52.142;11.618;2022-08-03T03:52:29;24.80;37.40
2749;DHT22;1382;52.142;11.618;2022-08-03T03:54:56;24.80;37.50
2749;DHT22;1382;52.142;11.618;2022-08-03T03:57:27;24.70;37.50
2749;DHT22;1382;52.142;11.618;2022-08-03T03:59:54;24.70;37.60
2749;DHT22;1382;52.142;11.618;2022-08-03T04:02:21;24.70;37.30
2749;DHT22;1382;52.142;11.618;2022-08-03T04:04:47;24.60;37.40
2749;DHT22;1382;52.142;11.618;2022-08-03T04:07:14;24.60;37.70
2749;DHT22;1382;52.142;11.618;2022-08-03T04:09:43;24.60;37.90
2749;DHT22;1382;52.142;11.618;2022-08-03T04:12:11;24.60;38.40
2749;DHT22;1382;52.142;11.618;2022-08-03T04:14:39;24.50;37.90
2749;DHT22;1382;52.142;11.618;2022-08-03T04:17:08;24.50;37.60
2749;DHT22;1382;52.142;11.618;2022-08-03T04:19:39;24.50;38.10
2749;DHT22;1382;52.142;11.618;2022-08-03T04:22:10;24.50;38.50
2749;DHT22;1382;52.142;11.618;2022-08-03T04:24:39;24.50;38.60
2749;DHT22;1382;52.142;11.618;2022-08-03T04:27:10;24.50;38.10
2749;DHT22;1382;52.142;11.618;2022-08-03T04:29:41;24.40;38.30
2749;DHT22;1382;52.142;11.618;2022-08-03T04:32:15;24.50;38.60
2749;DHT22;1382;52.142;11.618;2022-08-03T04:34:42;24.40;38.50
2749;DHT22;1382;52.142;11.618;2022-08-03T04:37:11;24.40;38.10
2749;DHT22;1382;52.142;11.618;2022-08-03T04:39:41;24.40;38.20
2749;DHT22;1382;52.142;11.618;2022-08-03T04:42:11;24.40;37.80
2749;DHT22;1382;52.142;11.618;2022-08-03T04:44:40;24.40;38.20
2749;DHT22;1382;52.142;11.618;2022-08-03T04:47:08;24.40;38.40
2749;DHT22;1382;52.142;11.618;2022-08-03T04:49:35;24.50;38.80
2749;DHT22;1382;52.142;11.618;2022-08-03T04:52:03;24.40;38.90
2749;DHT22;1382;52.142;11.618;2022-08-03T04:54:38;24.40;38.30
2749;DHT22;1382;52.142;11.618;2022-08-03T04:57:05;24.40;38.80
2749;DHT22;1382;52.142;11.618;2022-08-03T04:59:33;24.40;39.20
2749;DHT22;1382;52.142;11.618;2022-08-03T05:02:04;24.40;38.80
2749;DHT22;1382;52.142;11.618;2022-08-03T05:04:31;24.40;39.10
2749;DHT22;1382;52.142;11.618;2022-08-03T05:06:58;24.40;39.20
2749;DHT22;1382;52.142;11.618;2022-08-03T05:09:37;24.40;39.30
2749;DHT22;1382;52.142;11.618;2022-08-03T05:12:18;24.40;39.10
2749;DHT22;1382;52.142;11.618;2022-08-03T05:14:46;24.40;39.20
2749;DHT22;1382;52.142;11.618;2022-08-03T05:17:13;24.40;40.00
2749;DHT22;1382;52.142;11.618;2022-08-03T05:19:39;24.40;39.30
2749;DHT22;1382;52.142;11.618;2022-08-03T05:22:06;24.40;39.60
2749;DHT22;1382;52.142;11.618;2022-08-03T05:24:33;24.40;39.80
2749;DHT22;1382;52.142;11.618;2022-08-03T05:27:00;24.40;39.70
2749;DHT22;1382;52.142;11.618;2022-08-03T05:29:26;24.40;39.50
2749;DHT22;1382;52.142;11.618;2022-08-03T05:31:55;24.50;39.30
2749;DHT22;1382;52.142;11.618;2022-08-03T05:34:22;24.50;39.40
2749;DHT22;1382;52.142;11.618;2022-08-03T05:36:48;24.60;39.40
2749;DHT22;1382;52.142;11.618;2022-08-03T05:39:15;24.60;39.30
2749;DHT22;1382;52.142;11.618;2022-08-03T05:41:42;24.70;39.70
2749;DHT22;1382;52.142;11.618;2022-08-03T05:44:09;24.80;39.60
2749;DHT22;1382;52.142;11.618;2022-08-03T05:46:35;24.90;39.50
2749;DHT22;1382;52.142;11.618;2022-08-03T05:49:03;25.00;39.80
2749;DHT22;1382;52.142;11.618;2022-08-03T05:51:30;25.10;40.00
2749;DHT22;1382;52.142;11.618;2022-08-03T05:53:57;25.20;39.60
2749;DHT22;1382;52.142;11.618;2022-08-03T05:56:24;25.40;39.80
2749;DHT22;1382;52.142;11.618;2022-08-03T05:58:51;25.60;39.90
2749;DHT22;1382;52.142;11.618;2022-08-03T06:01:19;25.80;39.90
2749;DHT22;1382;52.142;11.618;2022-08-03T06:03:46;26.00;40.20
2749;DHT22;1382;52.142;11.618;2022-08-03T06:06:15;26.00;39.70
2749;DHT22;1382;52.142;11.618;2022-08-03T06:08:43;26.20;39.80
2749;DHT22;1382;52.142;11.618;2022-08-03T06:11:10;26.40;39.50
2749;DHT22;1382;52.142;11.618;2022-08-03T06:13:37;26.50;39.00
2749;DHT22;1382;52.142;11.618;2022-08-03T06:16:04;26.70;39.00
2749;DHT22;1382;52.142;11.618;2022-08-03T06:18:31;26.90;39.00
2749;DHT22;1382;52.142;11.618;2022-08-03T06:20:58;27.10;38.70
2749;DHT22;1382;52.142;11.618;2022-08-03T06:23:42;27.30;37.90
2749;DHT22;1382;52.142;11.618;2022-08-03T06:26:22;27.50;37.70
2749;DHT22;1382;52.142;11.618;2022-08-03T06:28:49;27.70;37.90
2749;DHT22;1382;52.142;11.618;2022-08-03T06:31:19;27.80;37.00
2749;DHT22;1382;52.142;11.618;2022-08-03T06:33:46;28.20;37.30
2749;DHT22;1382;52.142;11.618;2022-08-03T06:36:33;28.20;36.40
2749;DHT22;1382;52.142;11.618;2022-08-03T06:39:01;28.40;36.30
2749;DHT22;1382;52.142;11.618;2022-08-03T06:41:28;28.60;36.40
2749;DHT22;1382;52.142;11.618;2022-08-03T06:44:03;28.80;36.10
2749;DHT22;1382;52.142;11.618;2022-08-03T06:46:30;28.90;35.40
2749;DHT22;1382;52.142;11.618;2022-08-03T06:48:57;29.20;35.30
2749;DHT22;1382;52.142;11.618;2022-08-03T06:51:23;29.40;35.20
2749;DHT22;1382;52.142;11.618;2022-08-03T06:54:12;29.50;34.80
2749;DHT22;1382;52.142;11.618;2022-08-03T06:56:38;29.70;34.50
2749;DHT22;1382;52.142;11.618;2022-08-03T06:59:05;29.80;35.10
2749;DHT22;1382;52.142;11.618;2022-08-03T07:01:32;30.10;34.70
2749;DHT22;1382;52.142;11.618;2022-08-03T07:03:59;30.20;34.20
2749;DHT22;1382;52.142;11.618;2022-08-03T07:06:26;30.30;33.80
2749;DHT22;1382;52.142;11.618;2022-08-03T07:08:52;30.50;33.50
2749;DHT22;1382;52.142;11.618;2022-08-03T07:11:26;30.70;34.00
2749;DHT22;1382;52.142;11.618;2022-08-03T07:13:53;30.90;32.90
2749;DHT22;1382;52.142;11.618;2022-08-03T07:16:20;31.10;32.90
2749;DHT22;1382;52.142;11.618;2022-08-03T07:18:46;31.30;32.80
2749;DHT22;1382;52.142;11.618;2022-08-03T07:21:13;31.40;32.10
2749;DHT22;1382;52.142;11.618;2022-08-03T07:23:40;31.50;31.90
2749;DHT22;1382;52.142;11.618;2022-08-03T07:26:07;31.60;31.80
2749;DHT22;1382;52.142;11.618;2022-08-03T07:28:35;31.80;31.20
2749;DHT22;1382;52.142;11.618;2022-08-03T07:31:02;32.10;31.90
2749;DHT22;1382;52.142;11.618;2022-08-03T07:33:29;32.00;31.80
2749;DHT22;1382;52.142;11.618;2022-08-03T07:35:55;32.20;31.10
2749;DHT22;1382;52.142;11.618;2022-08-03T07:38:22;32.40;31.00
2749;DHT22;1382;52.142;11.618;2022-08-03T07:40:49;32.60;31.00
2749;DHT22;1382;52.142;11.618;2022-08-03T07:43:16;32.70;30.80
2749;DHT22;1382;52.142;11.618;2022-08-03T07:45:44;32.80;31.30
2749;DHT22;1382;52.142;11.618;2022-08-03T07:48:11;32.90;30.10
2749;DHT22;1382;52.142;11.618;2022-08-03T07:50:38;33.10;29.90
2749;DHT22;1382;52.142;11.618;2022-08-03T07:53:05;33.20;29.70
2749;DHT22;1382;52.142;11.618;2022-08-03T07:55:32;33.30;29.60
2749;DHT22;1382;52.142;11.618;2022-08-03T07:58:04;33.50;29.60
2749;DHT22;1382;52.142;11.618;2022-08-03T08:00:31;33.60;29.30
2749;DHT22;1382;52.142;11.618;2022-08-03T08:03:00;33.70;29.30
2749;DHT22;1382;52.142;11.618;2022-08-03T08:05:27;33.90;29.30
2749;DHT22;1382;52.142;11.618;2022-08-03T08:07:54;34.00;28.70
2749;DHT22;1382;52.142;11.618;2022-08-03T08:10:21;34.10;29.00
2749;DHT22;1382;52.142;11.618;2022-08-03T08:12:49;34.30;29.40
2749;DHT22;1382;52.142;11.618;2022-08-03T08:15:16;34.40;30.00
2749;DHT22;1382;52.142;11.618;2022-08-03T08:17:46;34.40;28.60
2749;DHT22;1382;52.142;11.618;2022-08-03T08:20:17;34.60;29.50
2749;DHT22;1382;52.142;11.618;2022-08-03T08:22:54;34.70;28.50
2749;DHT22;1382;52.142;11.618;2022-08-03T08:25:22;34.90;28.90
2749;DHT22;1382;52.142;11.618;2022-08-03T08:27:49;35.00;28.10
2749;DHT22;1382;52.142;11.618;2022-08-03T08:30:36;35.10;29.20
2749;DHT22;1382;52.142;11.618;2022-08-03T08:33:03;35.20;29.30
2749;DHT22;1382;52.142;11.618;2022-08-03T08:35:31;35.40;28.20
2749;DHT22;1382;52.142;11.618;2022-08-03T08:37:59;35.60;28.40
2749;DHT22;1382;52.142;11.618;2022-08-03T08:40:31;35.70;28.20
2749;DHT22;1382;52.142;11.618;2022-08-03T08:42:58;35.80;28.70
2749;DHT22;1382;52.142;11.618;2022-08-03T08:45:25;36.00;28.60
2749;DHT22;1382;52.142;11.618;2022-08-03T08:47:54;36.10;27.90
2749;DHT22;1382;52.142;11.618;2022-08-03T08:50:31;36.20;27.90
2749;DHT22;1382;52.142;11.618;2022-08-03T08:53:01;36.40;27.70
2749;DHT22;1382;52.142;11.618;2022-08-03T08:55:28;36.50;27.10
2749;DHT22;1382;52.142;11.618;2022-08-03T08:58:16;36.60;27.20
2749;DHT22;1382;52.142;11.618;2022-08-03T09:00:46;36.70;27.00
2749;DHT22;1382;52.142;11.618;2022-08-03T09:03:13;36.80;27.10
2749;DHT22;1382;52.142;11.618;2022-08-03T09:05:58;36.90;26.60
2749;DHT22;1382;52.142;11.618;2022-08-03T09:08:25;37.00;28.10
2749;DHT22;1382;52.142;11.618;2022-08-03T09:10:52;37.10;27.10
2749;DHT22;1382;52.142;11.618;2022-08-03T09:13:19;37.30;28.10
2749;DHT22;1382;52.142;11.618;2022-08-03T09:15:46;37.30;26.80
2749;DHT22;1382;52.142;11.618;2022-08-03T09:18:28;37.40;27.00
2749;DHT22;1382;52.142;11.618;2022-08-03T09:21:16;37.50;27.40
2749;DHT22;1382;52.142;11.618;2022-08-03T09:24:01;37.70;26.90
2749;DHT22;1382;52.142;11.618;2022-08-03T09:26:33;37.70;26.50
2749;DHT22;1382;52.142;11.618;2022-08-03T09:29:02;37.80;26.60
2749;DHT22;1382;52.142;11.618;2022-08-03T09:31:38;37.90;26.40
2749;DHT22;1382;52.142;11.618;2022-08-03T09:34:10;38.00;27.20
2749;DHT22;1382;52.142;11.618;2022-08-03T09:36:39;38.20;27.40
2749;DHT22;1382;52.142;11.618;2022-08-03T09:39:09;38.20;27.20
2749;DHT22;1382;52.142;11.618;2022-08-03T09:41:37;38.30;26.90
2749;DHT22;1382;52.142;11.618;2022-08-03T09:44:04;38.40;26.50
2749;DHT22;1382;52.142;11.618;2022-08-03T09:46:31;38.40;25.20
2749;DHT22;1382;52.142;11.618;2022-08-03T09:49:19;38.50;25.60
2749;DHT22;1382;52.142;11.618;2022-08-03T09:51:47;38.60;27.40
2749;DHT22;1382;52.142;11.618;2022-08-03T09:54:34;38.60;28.60
2749;DHT22;1382;52.142;11.618;2022-08-03T09:57:01;38.70;27.80
2749;DHT22;1382;52.142;11.618;2022-08-03T09:59:30;38.80;26.80
2749;DHT22;1382;52.142;11.618;2022-08-03T10:01:58;38.90;26.70
2749;DHT22;1382;52.142;11.618;2022-08-03T10:04:25;39.00;27.30
2749;DHT22;1382;52.142;11.618;2022-08-03T10:07:04;39.10;25.30
2749;DHT22;1382;52.142;11.618;2022-08-03T10:09:32;39.10;26.60
2749;DHT22;1382;52.142;11.618;2022-08-03T10:12:07;39.20;25.20
2749;DHT22;1382;52.142;11.618;2022-08-03T10:14:36;39.30;26.30
2749;DHT22;1382;52.142;11.618;2022-08-03T10:17:03;39.30;24.90
2749;DHT22;1382;52.142;11.618;2022-08-03T10:19:30;39.40;25.60
2749;DHT22;1382;52.142;11.618;2022-08-03T10:22:02;39.40;25.40
2749;DHT22;1382;52.142;11.618;2022-08-03T10:24:33;39.40;25.00
2749;DHT22;1382;52.142;11.618;2022-08-03T10:27:02;39.40;25.70
2749;DHT22;1382;52.142;11.618;2022-08-03T10:29:33;39.50;26.20
2749;DHT22;1382;52.142;11.618;2022-08-03T10:32:03;39.50;26.00
2749;DHT22;1382;52.142;11.618;2022-08-03T10:34:34;39.60;25.50
2749;DHT22;1382;52.142;11.618;2022-08-03T10:37:10;39.50;24.90
2749;DHT22;1382;52.142;11.618;2022-08-03T10:39:43;39.50;24.00
2749;DHT22;1382;52.142;11.618;2022-08-03T10:42:10;39.40;26.60
2749;DHT22;1382;52.142;11.618;2022-08-03T10:44:41;39.50;26.60
2749;DHT22;1382;52.142;11.618;2022-08-03T10:47:09;39.60;26.40
2749;DHT22;1382;52.142;11.618;2022-08-03T10:49:36;39.60;27.10
2749;DHT22;1382;52.142;11.618;2022-08-03T10:52:04;39.80;25.60
2749;DHT22;1382;52.142;11.618;2022-08-03T10:54:52;39.80;26.70
2749;DHT22;1382;52.142;11.618;2022-08-03T10:57:43;39.90;25.50
2749;DHT22;1382;52.142;11.618;2022-08-03T11:00:13;40.10;26.90
2749;DHT22;1382;52.142;11.618;2022-08-03T11:05:44;40.30;27.40
2749;DHT22;1382;52.142;11.618;2022-08-03T11:08:29;40.40;25.50
2749;DHT22;1382;52.142;11.618;2022-08-03T11:11:02;40.50;25.20
2749;DHT22;1382;52.142;11.618;2022-08-03T11:13:59;40.50;26.10
2749;DHT22;1382;52.142;11.618;2022-08-03T11:16:30;40.70;26.70
2749;DHT22;1382;52.142;11.618;2022-08-03T11:18:58;40.80;27.20
2749;DHT22;1382;52.142;11.618;2022-08-03T11:25:05;41.10;25.60
2749;DHT22;1382;52.142;11.618;2022-08-03T11:27:32;41.10;25.80
2749;DHT22;1382;52.142;11.618;2022-08-03T11:30:04;41.10;24.50
2749;DHT22;1382;52.142;11.618;2022-08-03T11:32:56;41.10;24.40
2749;DHT22;1382;52.142;11.618;2022-08-03T11:35:25;41.30;25.10
2749;DHT22;1382;52.142;11.618;2022-08-03T11:38:11;41.30;24.50
2749;DHT22;1382;52.142;11.618;2022-08-03T11:40:40;41.40;25.00
2749;DHT22;1382;52.142;11.618;2022-08-03T11:43:08;41.50;23.90
2749;DHT22;1382;52.142;11.618;2022-08-03T11:45:37;41.60;26.00
2749;DHT22;1382;52.142;11.618;2022-08-03T11:48:14;41.60;26.90
2749;DHT22;1382;52.142;11.618;2022-08-03T11:50:42;41.70;26.00
2749;DHT22;1382;52.142;11.618;2022-08-03T11:53:13;41.70;25.80
2749;DHT22;1382;52.142;11.618;2022-08-03T11:55:40;41.80;25.40
2749;DHT22;1382;52.142;11.618;2022-08-03T11:58:07;41.90;25.70
2749;DHT22;1382;52.142;11.618;2022-08-03T12:01:04;42.00;24.40
2749;DHT22;1382;52.142;11.618;2022-08-03T12:03:32;42.00;25.40
2749;DHT22;1382;52.142;11.618;2022-08-03T12:06:00;42.10;24.30
2749;DHT22;1382;52.142;11.618;2022-08-03T12:08:32;42.10;26.10
2749;DHT22;1382;52.142;11.618;2022-08-03T12:11:00;42.20;25.50
2749;DHT22;1382;52.142;11.618;2022-08-03T12:13:35;42.40;26.60
2749;DHT22;1382;52.142;11.618;2022-08-03T12:16:25;42.30;24.80
2749;DHT22;1382;52.142;11.618;2022-08-03T12:18:57;42.40;23.70
2749;DHT22;1382;52.142;11.618;2022-08-03T12:21:24;42.40;23.90
2749;DHT22;1382;52.142;11.618;2022-08-03T12:23:55;42.50;25.60
2749;DHT22;1382;52.142;11.618;2022-08-03T12:26:22;42.60;25.30
2749;DHT22;1382;52.142;11.618;2022-08-03T12:28:49;42.60;25.50
2749;DHT22;1382;52.142;11.618;2022-08-03T12:31:16;42.70;25.80
2749;DHT22;1382;52.142;11.618;2022-08-03T12:34:01;42.80;26.50
2749;DHT22;1382;52.142;11.618;2022-08-03T12:36:30;42.90;24.20
2749;DHT22;1382;52.142;11.618;2022-08-03T12:38:58;42.90;24.60
2749;DHT22;1382;52.142;11.618;2022-08-03T12:41:29;43.00;23.60
2749;DHT22;1382;52.142;11.618;2022-08-03T12:43:56;43.00;22.80
2749;DHT22;1382;52.142;11.618;2022-08-03T12:46:29;43.00;23.20
2749;DHT22;1382;52.142;11.618;2022-08-03T12:49:03;43.10;23.30
2749;DHT22;1382;52.142;11.618;2022-08-03T12:51:32;43.20;24.50
2749;DHT22;1382;52.142;11.618;2022-08-03T12:54:00;43.20;23.80
2749;DHT22;1382;52.142;11.618;2022-08-03T12:56:28;43.30;23.60
2749;DHT22;1382;52.142;11.618;2022-08-03T12:58:54;43.20;24.00
2749;DHT22;1382;52.142;11.618;2022-08-03T13:01:22;43.30;23.10
2749;DHT22;1382;52.142;11.618;2022-08-03T13:03:51;43.40;24.30
2749;DHT22;1382;52.142;11.618;2022-08-03T13:06:22;43.40;25.50
2749;DHT22;1382;52.142;11.618;2022-08-03T13:09:01;43.40;24.90
2749;DHT22;1382;52.142;11.618;2022-08-03T13:11:28;43.40;24.30
2749;DHT22;1382;52.142;11.618;2022-08-03T13:14:15;43.60;24.50
2749;DHT22;1382;52.142;11.618;2022-08-03T13:16:46;43.50;23.40
2749;DHT22;1382;52.142;11.618;2022-08-03T13:19:13;43.50;24.80
2749;DHT22;1382;52.142;11.618;2022-08-03T13:21:42;43.50;24.70
2749;DHT22;1382;52.142;11.618;2022-08-03T13:24:29;43.60;24.70
2749;DHT22;1382;52.142;11.618;2022-08-03T13:26:57;43.60;23.90
2749;DHT22;1382;52.142;11.618;2022-08-03T13:29:24;43.80;25.10
2749;DHT22;1382;52.142;11.618;2022-08-03T13:31:51;43.70;25.80
2749;DHT22;1382;52.142;11.618;2022-08-03T13:34:18;43.80;24.60
2749;DHT22;1382;52.142;11.618;2022-08-03T13:36:51;43.90;25.30
2749;DHT22;1382;52.142;11.618;2022-08-03T13:39:34;43.90;24.40
2749;DHT22;1382;52.142;11.618;2022-08-03T13:42:21;43.90;22.10
2749;DHT22;1382;52.142;11.618;2022-08-03T13:44:48;43.90;21.30
2749;DHT22;1382;52.142;11.618;2022-08-03T13:47:16;43.80;21.90
2749;DHT22;1382;52.142;11.618;2022-08-03T13:49:43;43.80;22.50
2749;DHT22;1382;52.142;11.618;2022-08-03T13:52:30;43.90;22.00
2749;DHT22;1382;52.142;11.618;2022-08-03T13:54:57;43.90;22.00
2749;DHT22;1382;52.142;11.618;2022-08-03T13:57:25;43.90;22.10
2749;DHT22;1382;52.142;11.618;2022-08-03T14:00:13;43.90;21.80
2749;DHT22;1382;52.142;11.618;2022-08-03T14:02:52;44.00;21.40
2749;DHT22;1382;52.142;11.618;2022-08-03T14:05:29;43.90;21.20
2749;DHT22;1382;52.142;11.618;2022-08-03T14:08:02;43.90;21.00
2749;DHT22;1382;52.142;11.618;2022-08-03T14:10:34;43.90;21.80
2749;DHT22;1382;52.142;11.618;2022-08-03T14:13:01;43.90;20.90
2749;DHT22;1382;52.142;11.618;2022-08-03T14:15:28;43.80;21.30
2749;DHT22;1382;52.142;11.618;2022-08-03T14:18:04;43.80;23.50
2749;DHT22;1382;52.142;11.618;2022-08-03T14:20:31;43.80;23.50
2749;DHT22;1382;52.142;11.618;2022-08-03T14:23:14;43.90;21.40
2749;DHT22;1382;52.142;11.618;2022-08-03T14:25:41;43.80;21.90
2749;DHT22;1382;52.142;11.618;2022-08-03T14:28:18;43.80;21.60
2749;DHT22;1382;52.142;11.618;2022-08-03T14:30:45;43.80;20.90
2749;DHT22;1382;52.142;11.618;2022-08-03T14:33:12;43.80;20.90
2749;DHT22;1382;52.142;11.618;2022-08-03T14:35:39;43.80;21.50
2749;DHT22;1382;52.142;11.618;2022-08-03T14:38:05;43.70;21.60
2749;DHT22;1382;52.142;11.618;2022-08-03T14:40:34;43.60;23.50
2749;DHT22;1382;52.142;11.618;2022-08-03T14:43:01;43.60;22.90
2749;DHT22;1382;52.142;11.618;2022-08-03T14:45:28;43.50;22.10
2749;DHT22;1382;52.142;11.618;2022-08-03T14:47:54;43.50;22.40
2749;DHT22;1382;52.142;11.618;2022-08-03T14:50:41;43.40;23.30
2749;DHT22;1382;52.142;11.618;2022-08-03T14:53:16;43.30;23.00
2749;DHT22;1382;52.142;11.618;2022-08-03T14:55:46;43.30;24.50
2749;DHT22;1382;52.142;11.618;2022-08-03T14:58:17;43.20;23.50
2749;DHT22;1382;52.142;11.618;2022-08-03T15:00:47;43.10;22.00
2749;DHT22;1382;52.142;11.618;2022-08-03T15:03:14;43.10;22.00
2749;DHT22;1382;52.142;11.618;2022-08-03T15:05:42;43.20;24.40
2749;DHT22;1382;52.142;11.618;2022-08-03T15:08:09;43.30;24.00
2749;DHT22;1382;52.142;11.618;2022-08-03T15:10:36;43.10;24.20
2749;DHT22;1382;52.142;11.618;2022-08-03T15:13:12;43.20;24.10
2749;DHT22;1382;52.142;11.618;2022-08-03T15:15:39;43.10;23.50
2749;DHT22;1382;52.142;11.618;2022-08-03T15:18:06;43.20;22.30
2749;DHT22;1382;52.142;11.618;2022-08-03T15:20:33;43.10;22.00
2749;DHT22;1382;52.142;11.618;2022-08-03T15:23:16;43.20;22.60
2749;DHT22;1382;52.142;11.618;2022-08-03T15:25:44;43.10;23.00
2749;DHT22;1382;52.142;11.618;2022-08-03T15:28:32;43.20;24.10
2749;DHT22;1382;52.142;11.618;2022-08-03T15:30:59;43.20;23.80
2749;DHT22;1382;52.142;11.618;2022-08-03T15:33:26;43.20;22.10
2749;DHT22;1382;52.142;11.618;2022-08-03T15:35:53;43.20;23.50
2749;DHT22;1382;52.142;11.618;2022-08-03T15:38:20;43.30;22.80
2749;DHT22;1382;52.142;11.618;2022-08-03T15:40:47;43.30;21.40
2749;DHT22;1382;52.142;11.618;2022-08-03T15:43:13;43.30;21.20
2749;DHT22;1382;52.142;11.618;2022-08-03T15:45:42;43.30;21.70
2749;DHT22;1382;52.142;11.618;2022-08-03T15:48:08;43.30;21.00
2749;DHT22;1382;52.142;11.618;2022-08-03T15:50:35;43.30;20.50
2749;DHT22;1382;52.142;11.618;2022-08-03T15:53:03;43.20;21.80
2749;DHT22;1382;52.142;11.618;2022-08-03T15:55:30;43.20;21.10
2749;DHT22;1382;52.142;11.618;2022-08-03T15:57:57;43.10;22.20
2749;DHT22;1382;52.142;11.618;2022-08-03T16:00:45;43.10;21.30
2749;DHT22;1382;52.142;11.618;2022-08-03T16:03:12;43.10;21.60
2749;DHT22;1382;52.142;11.618;2022-08-03T16:05:39;43.00;21.40
2749;DHT22;1382;52.142;11.618;2022-08-03T16:08:06;43.00;21.30
2749;DHT22;1382;52.142;11.618;2022-08-03T16:10:39;43.00;22.70
2749;DHT22;1382;52.142;11.618;2022-08-03T16:13:06;43.00;23.30
2749;DHT22;1382;52.142;11.618;2022-08-03T16:15:33;42.90;21.30